Miranda, California
Current Conditions -  °F | °C
As of 2:30 AM on Thursday 23 Oct 2014 (Local Time) from KFOT Reporting Station
Overcast Overcast  
Wind Chill: 59°   Ceiling: 3100
Heat Index: 59°   Visibility: 5mi
Dew Point: 57°   Wind: 21mph
Humidity: 94%   Direction: 110°ESE
Pressure: 29.91"   Gusts: NA
Location:  40.23°N, 123.83°W
Report Text: KFOT 230930Z AUTO 11018KT 5SM FEW003 BKN031 OVC100 15/14 A2991 RMK AO1 P0007
Loading
Personal Weather Stations






























Interactive Weather Map
Tropical Storm Tracking
New forecast layout! Learn more

10-Day Weather Forecast

Advertisements
Track Severe Weather on mobile